Time;durP1;ratioP1;P1;durP2;ratioP2;P2;SDS_P1;SDS_P2;PMS_P1;PMS_P2;Temp;Humidity;BMP_temperature;BMP_pressure;BME280_temperature;BME280_humidity;BME280_pressure;Samples;Min_cycle;Max_cycle;Signal;HPM_P1;HPM_P2
2022/10/09 00:01:32;;;;;;;0.00;0.00;;;9.10;99.90;;;;;;5037667;28;20048;-82
2022/10/09 00:03:58;;;;;;;0.00;0.00;;;9.10;99.90;;;;;;4997335;28;20100;-81
2022/10/09 00:06:30;;;;;;;0.00;0.00;;;9.00;99.90;;;;;;4998124;28;20054;-81
2022/10/09 00:08:56;;;;;;;0.00;0.00;;;9.00;99.90;;;;;;4981123;28;20052;-81
2022/10/09 00:11:24;;;;;;;0.00;0.00;;;9.00;99.90;;;;;;4980579;28;20124;-81
2022/10/09 00:13:51;;;;;;;0.00;0.00;;;9.00;99.90;;;;;;4997556;28;20054;-81
2022/10/09 00:16:18;;;;;;;0.00;0.00;;;9.00;99.90;;;;;;4997006;28;20045;-83
2022/10/09 00:18:44;;;;;;;0.00;0.00;;;9.00;99.90;;;;;;4981109;28;20046;-81
2022/10/09 00:21:17;;;;;;;0.00;0.00;;;8.90;99.90;;;;;;4980979;28;20064;-83
2022/10/09 00:23:43;;;;;;;0.00;0.00;;;9.00;99.90;;;;;;4980926;28;20053;-81
2022/10/09 00:26:10;;;;;;;0.00;0.00;;;8.90;99.90;;;;;;4980905;28;20153;-81
2022/10/09 00:28:36;;;;;;;0.00;0.00;;;8.90;99.90;;;;;;4996805;28;20157;-81
2022/10/09 00:31:06;;;;;;;0.08;0.08;;;8.90;99.90;;;;;;4996513;28;20037;-83
2022/10/09 00:33:33;;;;;;;0.00;0.00;;;8.80;99.90;;;;;;4996992;28;20057;-81
2022/10/09 00:36:03;;;;;;;0.00;0.00;;;8.80;99.90;;;;;;4996890;28;20046;-81
2022/10/09 00:38:28;;;;;;;0.00;0.00;;;8.80;99.90;;;;;;4996968;28;20053;-81
2022/10/09 00:40:54;;;;;;;0.00;0.00;;;8.80;99.90;;;;;;5038167;28;20137;-81
2022/10/09 00:43:47;;;;;;;0.00;0.00;;;8.70;99.90;;;;;;5037367;28;20488;-81
2022/10/09 00:46:24;;;;;;;0.00;0.00;;;8.70;99.90;;;;;;5054246;28;20045;-82
2022/10/09 00:49:17;;;;;;;0.00;0.00;;;8.60;99.90;;;;;;5036762;28;20064;-81
2022/10/09 00:51:45;;;;;;;0.00;0.00;;;8.60;99.90;;;;;;5012785;28;20559;-82
2022/10/09 00:54:13;;;;;;;0.00;0.00;;;8.50;99.90;;;;;;4996724;28;20069;-81
2022/10/09 00:56:39;;;;;;;0.00;0.00;;;8.50;99.90;;;;;;4997480;28;20054;-82
2022/10/09 00:59:05;;;;;;;0.00;0.00;;;8.50;99.90;;;;;;4996595;28;20544;-82
2022/10/09 01:01:31;;;;;;;0.00;0.00;;;8.50;99.90;;;;;;4996965;28;20060;-82
2022/10/09 01:03:57;;;;;;;0.10;0.10;;;8.50;99.90;;;;;;4996504;28;20141;-82
2022/10/09 01:06:59;;;;;;;0.00;0.00;;;8.50;99.90;;;;;;4996440;28;20042;-82
2022/10/09 01:09:38;;;;;;;0.00;0.00;;;8.50;99.90;;;;;;4996131;28;20054;-82
2022/10/09 01:12:22;;;;;;;0.00;0.00;;;8.40;99.90;;;;;;4980414;28;20046;-82
2022/10/09 01:15:14;;;;;;;0.00;0.00;;;8.50;99.90;;;;;;4980347;28;20061;-81
2022/10/09 01:17:50;;;;;;;0.00;0.00;;;8.40;99.90;;;;;;4996029;28;20079;-81
2022/10/09 01:20:42;;;;;;;0.00;0.00;;;8.40;99.90;;;;;;4980142;28;20081;-82
2022/10/09 01:23:11;;;;;;;0.00;0.00;;;8.40;99.90;;;;;;4980071;28;20109;-82
2022/10/09 01:26:22;;;;;;;0.00;0.00;;;8.40;99.90;;;;;;4996356;28;20054;-82
2022/10/09 01:28:54;;;;;;;0.00;0.00;;;8.40;99.90;;;;;;4957454;28;20150;-82
2022/10/09 01:31:23;;;;;;;0.00;0.00;;;8.40;99.90;;;;;;4957486;28;20045;-82
2022/10/09 01:33:50;;;;;;;0.00;0.00;;;8.40;99.90;;;;;;4957126;28;20571;-82
2022/10/09 01:36:17;;;;;;;0.10;0.00;;;8.40;99.90;;;;;;4957634;28;20109;-82
2022/10/09 01:38:44;;;;;;;0.20;0.10;;;8.40;99.90;;;;;;4957356;28;20058;-82
2022/10/09 01:41:10;;;;;;;0.00;0.00;;;8.40;99.90;;;;;;4957734;28;20063;-82
2022/10/09 01:43:35;;;;;;;0.00;0.00;;;8.30;99.90;;;;;;4957253;28;20503;-82
2022/10/09 01:46:20;;;;;;;0.00;0.00;;;8.30;99.90;;;;;;4973266;28;20063;-82
2022/10/09 01:48:53;;;;;;;0.05;0.00;;;8.30;99.90;;;;;;4956817;28;20182;-82
2022/10/09 01:51:22;;;;;;;0.00;0.00;;;8.30;99.90;;;;;;4957288;28;20050;-82
2022/10/09 01:53:53;;;;;;;0.00;0.00;;;8.30;99.90;;;;;;4957119;28;20458;-82
2022/10/09 01:56:21;;;;;;;0.75;0.43;;;8.20;99.90;;;;;;4957208;28;20134;-82
2022/10/09 01:58:58;;;;;;;0.00;0.00;;;8.20;99.90;;;;;;4973171;28;20174;-82
2022/10/09 02:01:30;;;;;;;0.00;0.00;;;8.20;99.90;;;;;;5069298;28;20139;-82
2022/10/09 02:03:59;;;;;;;0.00;0.00;;;8.20;99.90;;;;;;5052935;28;20492;-82
2022/10/09 02:06:27;;;;;;;0.00;0.00;;;8.20;99.90;;;;;;5052768;28;20052;-81
2022/10/09 02:08:54;;;;;;;0.00;0.00;;;8.50;99.90;;;;;;5052526;28;20041;-82
2022/10/09 02:11:22;;;;;;;0.00;0.00;;;8.20;99.90;;;;;;5053015;28;20358;-82
2022/10/09 02:13:51;;;;;;;0.00;0.00;;;8.20;99.90;;;;;;5035869;28;20072;-82
2022/10/09 02:16:40;;;;;;;0.65;0.65;;;8.20;99.90;;;;;;5036737;28;20045;-82
2022/10/09 02:19:25;;;;;;;0.00;0.00;;;8.10;99.90;;;;;;5052565;28;20045;-82
2022/10/09 02:21:58;;;;;;;0.00;0.00;;;8.10;99.90;;;;;;5039764;28;20045;-82
2022/10/09 02:24:25;;;;;;;7.47;0.03;;;8.00;99.90;;;;;;5056901;28;20041;-82
2022/10/09 02:26:56;;;;;;;0.22;0.22;;;8.00;99.90;;;;;;5056772;28;20492;-82
2022/10/09 02:29:22;;;;;;;0.00;0.00;;;8.00;99.90;;;;;;5048951;28;20052;-82
2022/10/09 02:31:47;;;;;;;0.00;0.00;;;8.00;99.90;;;;;;5075018;28;20041;-82
2022/10/09 02:34:16;;;;;;;3.20;0.38;;;8.00;99.90;;;;;;5047957;28;20067;-82
2022/10/09 02:36:42;;;;;;;0.00;0.00;;;8.00;99.90;;;;;;5056556;28;20041;-82
2022/10/09 02:39:08;;;;;;;0.00;0.00;;;8.00;99.90;;;;;;5056562;28;20075;-82
2022/10/09 02:41:34;;;;;;;0.00;0.00;;;8.00;99.90;;;;;;5055623;28;20116;-82
2022/10/09 02:44:01;;;;;;;0.00;0.00;;;8.00;99.90;;;;;;5039882;28;20088;-82
2022/10/09 02:46:27;;;;;;;0.00;0.00;;;8.10;99.90;;;;;;5039164;28;20045;-82
2022/10/09 02:48:52;;;;;;;0.00;0.00;;;8.00;99.90;;;;;;5055469;28;20114;-82
2022/10/09 02:51:18;;;;;;;0.10;0.10;;;8.00;99.90;;;;;;5055978;28;20053;-82
2022/10/09 02:53:45;;;;;;;0.15;0.00;;;8.10;99.90;;;;;;5055770;28;20500;-82
2022/10/09 02:56:11;;;;;;;0.00;0.00;;;8.00;99.90;;;;;;5055648;28;20044;-82
2022/10/09 02:58:37;;;;;;;0.00;0.00;;;8.00;99.90;;;;;;5056042;28;20048;-82
2022/10/09 03:01:04;;;;;;;0.28;0.28;;;7.90;99.90;;;;;;5055989;28;20045;-82
2022/10/09 03:03:30;;;;;;;0.08;0.00;;;8.00;99.90;;;;;;5056292;28;20051;-82
2022/10/09 03:06:03;;;;;;;0.13;0.00;;;7.90;99.90;;;;;;5055834;28;20049;-82
2022/10/09 03:08:30;;;;;;;0.00;0.00;;;7.80;99.90;;;;;;5055258;28;20045;-82
2022/10/09 03:10:55;;;;;;;0.00;0.00;;;7.80;99.90;;;;;;5039176;28;20060;-82
2022/10/09 03:13:21;;;;;;;0.00;0.00;;;7.70;99.90;;;;;;5039069;28;20056;-82
2022/10/09 03:15:46;;;;;;;0.10;0.10;;;7.70;99.90;;;;;;5055506;28;20041;-82
2022/10/09 03:18:12;;;;;;;0.15;0.15;;;7.60;99.90;;;;;;5055781;28;20053;-82
2022/10/09 03:20:38;;;;;;;0.00;0.00;;;7.60;99.90;;;;;;5038951;28;20052;-82
2022/10/09 03:23:04;;;;;;;0.00;0.00;;;7.50;99.90;;;;;;5038632;28;20049;-82
2022/10/09 03:25:29;;;;;;;0.00;0.00;;;7.50;99.90;;;;;;5055527;28;20040;-82
2022/10/09 03:27:55;;;;;;;0.00;0.00;;;7.60;99.90;;;;;;5038689;28;20128;-82
2022/10/09 03:30:20;;;;;;;0.00;0.00;;;7.50;99.90;;;;;;5055203;28;20049;-82
2022/10/09 03:32:46;;;;;;;0.00;0.00;;;7.40;99.90;;;;;;5054741;28;20044;-83
2022/10/09 03:35:15;;;;;;;0.00;0.00;;;7.60;99.90;;;;;;5055337;28;20040;-82
2022/10/09 03:37:40;;;;;;;0.28;0.28;;;7.30;99.90;;;;;;5038195;28;20052;-83
2022/10/09 03:40:06;;;;;;;0.00;0.00;;;7.40;99.90;;;;;;5038753;28;20045;-83
2022/10/09 03:42:32;;;;;;;0.00;0.00;;;7.30;99.90;;;;;;5054959;28;20044;-83
2022/10/09 03:45:01;;;;;;;0.00;0.00;;;7.20;99.90;;;;;;5054837;28;20041;-83
2022/10/09 03:47:27;;;;;;;0.00;0.00;;;7.20;99.90;;;;;;5054861;28;20053;-83
2022/10/09 03:49:53;;;;;;;0.00;0.00;;;7.20;99.90;;;;;;5054419;28;20053;-82
2022/10/09 03:52:18;;;;;;;0.00;0.00;;;7.20;99.90;;;;;;5038347;28;20137;-83
2022/10/09 03:54:44;;;;;;;0.00;0.00;;;7.10;99.90;;;;;;5038249;28;20069;-82
2022/10/09 03:57:10;;;;;;;0.00;0.00;;;7.10;99.90;;;;;;5054694;28;20400;-83
2022/10/09 03:59:35;;;;;;;0.00;0.00;;;7.20;99.90;;;;;;5038321;28;20142;-84
2022/10/09 04:02:01;;;;;;;0.00;0.00;;;7.10;99.90;;;;;;5054896;28;20041;-82
2022/10/09 04:04:27;;;;;;;0.00;0.00;;;7.20;99.90;;;;;;5038240;28;20052;-82
2022/10/09 04:06:52;;;;;;;0.00;0.00;;;7.20;99.90;;;;;;5048822;28;20041;-82
2022/10/09 04:09:18;;;;;;;0.08;0.08;;;7.10;99.90;;;;;;5067552;28;20052;-82
2022/10/09 04:11:44;;;;;;;0.00;0.00;;;7.10;99.90;;;;;;5060851;28;20088;-82
2022/10/09 04:14:09;;;;;;;0.00;0.00;;;7.10;99.90;;;;;;5038237;28;20421;-83
2022/10/09 04:16:35;;;;;;;0.45;0.32;;;7.20;99.90;;;;;;5054422;28;20481;-83
2022/10/09 04:19:01;;;;;;;0.10;0.10;;;7.10;99.90;;;;;;5037439;28;20139;-83
2022/10/09 04:21:26;;;;;;;0.00;0.00;;;7.10;99.90;;;;;;5038746;28;20055;-82
2022/10/09 04:23:52;;;;;;;0.00;0.00;;;7.10;99.90;;;;;;5038047;28;20489;-83
2022/10/09 04:26:18;;;;;;;0.00;0.00;;;7.10;99.90;;;;;;5037933;28;20404;-83
2022/10/09 04:28:44;;;;;;;0.03;0.03;;;7.10;99.90;;;;;;5054188;28;20067;-83
2022/10/09 04:31:09;;;;;;;1.85;0.55;;;7.20;99.90;;;;;;5037809;28;20048;-83
2022/10/09 04:33:35;;;;;;;0.00;0.00;;;7.10;99.90;;;;;;5054281;28;20047;-83
2022/10/09 04:36:02;;;;;;;0.00;0.00;;;7.60;99.90;;;;;;5053912;28;20041;-82
2022/10/09 04:38:29;;;;;;;0.00;0.00;;;7.10;99.90;;;;;;5037556;28;20041;-82
2022/10/09 04:41:04;;;;;;;0.00;0.00;;;7.10;99.90;;;;;;5038241;28;20131;-82
2022/10/09 04:43:32;;;;;;;0.17;0.17;;;7.10;99.90;;;;;;5036932;28;20056;-82
2022/10/09 04:45:58;;;;;;;0.00;0.00;;;7.10;99.90;;;;;;5053885;28;20041;-82
2022/10/09 04:48:24;;;;;;;0.00;0.00;;;7.00;99.90;;;;;;5036424;28;20067;-82
2022/10/09 04:50:50;;;;;;;0.90;0.00;;;7.00;99.90;;;;;;5037027;28;20141;-82
2022/10/09 04:53:15;;;;;;;0.00;0.00;;;7.00;99.90;;;;;;5053937;28;20079;-82
2022/10/09 04:55:42;;;;;;;0.00;0.00;;;7.00;99.90;;;;;;5037207;28;20386;-82
2022/10/09 04:58:10;;;;;;;0.00;0.00;;;6.90;99.90;;;;;;5036953;28;20076;-82
2022/10/09 05:00:44;;;;;;;0.03;0.00;;;6.90;99.90;;;;;;5037123;28;20511;-82
2022/10/09 05:03:10;;;;;;;0.22;0.22;;;6.80;99.90;;;;;;5037402;28;20508;-82
2022/10/09 05:05:36;;;;;;;0.00;0.00;;;6.80;99.90;;;;;;5037210;28;20048;-82
2022/10/09 05:08:02;;;;;;;0.00;0.00;;;6.80;99.90;;;;;;5037122;28;20080;-82
2022/10/09 05:10:28;;;;;;;0.00;0.00;;;6.80;99.90;;;;;;5036599;28;20053;-83
2022/10/09 05:12:54;;;;;;;0.00;0.00;;;6.80;99.90;;;;;;5036945;28;20061;-82
2022/10/09 05:15:20;;;;;;;0.00;0.00;;;6.80;99.90;;;;;;5053185;28;20492;-82
2022/10/09 05:17:45;;;;;;;0.00;0.00;;;6.80;99.90;;;;;;5037227;28;20132;-82
2022/10/09 05:20:11;;;;;;;0.00;0.00;;;6.90;99.90;;;;;;5037111;28;20049;-82
2022/10/09 05:22:37;;;;;;;0.00;0.00;;;6.80;99.90;;;;;;5036626;28;20076;-82
2022/10/09 05:25:02;;;;;;;0.00;0.00;;;6.80;99.90;;;;;;5053114;28;20041;-82
2022/10/09 05:27:28;;;;;;;0.00;0.00;;;6.80;99.90;;;;;;5036460;28;20041;-82
2022/10/09 05:29:54;;;;;;;0.00;0.00;;;6.80;99.90;;;;;;5036382;28;20053;-82
2022/10/09 05:32:20;;;;;;;0.00;0.00;;;6.70;99.90;;;;;;5052316;28;20064;-82
2022/10/09 05:34:46;;;;;;;0.00;0.00;;;6.70;99.90;;;;;;5036303;28;20480;-82
2022/10/09 05:37:11;;;;;;;0.00;0.00;;;6.70;99.90;;;;;;5036514;28;20154;-82
2022/10/09 05:39:38;;;;;;;0.00;0.00;;;7.00;99.90;;;;;;5052976;28;20052;-83
2022/10/09 05:42:04;;;;;;;0.00;0.00;;;6.70;99.90;;;;;;5046615;28;20041;-83
2022/10/09 05:44:30;;;;;;;0.00;0.00;;;6.70;99.90;;;;;;5072934;28;20120;-82
2022/10/09 05:46:55;;;;;;;0.10;0.10;;;6.60;99.90;;;;;;5046222;28;20132;-83
2022/10/09 05:49:21;;;;;;;0.00;0.00;;;6.60;99.90;;;;;;5036305;28;20056;-82
2022/10/09 05:51:48;;;;;;;0.10;0.10;;;6.50;99.90;;;;;;5053048;28;20435;-82
2022/10/09 05:54:16;;;;;;;0.00;0.00;;;6.50;99.90;;;;;;5053258;28;20433;-83
2022/10/09 05:56:43;;;;;;;0.00;0.00;;;6.50;99.90;;;;;;5056028;28;20539;-83
2022/10/09 05:59:14;;;;;;;0.00;0.00;;;6.50;99.90;;;;;;5056935;28;20094;-83
2022/10/09 06:01:42;;;;;;;0.57;0.00;;;6.50;99.90;;;;;;5040011;28;20049;-83
2022/10/09 06:04:13;;;;;;;0.08;0.05;;;6.50;99.90;;;;;;5057115;28;20495;-83
2022/10/09 06:06:40;;;;;;;0.20;0.15;;;6.50;99.90;;;;;;5040673;28;20045;-83
2022/10/09 06:09:07;;;;;;;0.00;0.00;;;6.60;99.90;;;;;;5056719;28;20044;-83
2022/10/09 06:11:35;;;;;;;0.00;0.00;;;6.50;99.90;;;;;;5039959;28;20132;-83
2022/10/09 06:14:03;;;;;;;0.00;0.00;;;6.50;99.90;;;;;;5057335;28;20128;-83
2022/10/09 06:16:31;;;;;;;0.00;0.00;;;6.50;99.90;;;;;;5040555;28;20500;-83
2022/10/09 06:18:57;;;;;;;0.00;0.00;;;6.40;99.90;;;;;;5056757;28;20049;-82
2022/10/09 06:21:25;;;;;;;0.00;0.00;;;6.60;99.90;;;;;;5056836;28;20120;-82
2022/10/09 06:23:52;;;;;;;0.00;0.00;;;6.40;99.90;;;;;;5056503;28;20049;-82
2022/10/09 06:26:18;;;;;;;0.00;0.00;;;6.30;99.90;;;;;;5039751;28;20104;-83
2022/10/09 06:28:44;;;;;;;0.00;0.00;;;6.30;99.90;;;;;;5040061;28;20420;-83
2022/10/09 06:31:19;;;;;;;0.00;0.00;;;6.40;99.90;;;;;;5056353;28;20037;-83
2022/10/09 06:33:46;;;;;;;;;;;6.30;99.90;;;;;;5056861;28;20102;-83
2022/10/09 06:36:13;;;;;;;0.05;0.05;;;6.30;99.90;;;;;;5056465;28;19978;-82
2022/10/09 06:38:39;;;;;;;0.00;0.00;;;6.60;99.90;;;;;;5056329;28;20049;-83
2022/10/09 06:41:11;;;;;;;0.03;0.00;;;6.40;99.90;;;;;;5056340;28;20493;-82
2022/10/09 06:43:37;;;;;;;0.00;0.00;;;6.40;99.90;;;;;;5056486;28;20396;-83
2022/10/09 06:46:05;;;;;;;0.00;0.00;;;6.50;99.90;;;;;;5039296;28;20076;-83
2022/10/09 06:48:35;;;;;;;0.00;0.00;;;6.40;99.90;;;;;;5039219;28;20045;-83
2022/10/09 06:51:03;;;;;;;0.00;0.00;;;6.50;99.90;;;;;;5055776;28;20497;-82
2022/10/09 06:53:29;;;;;;;0.00;0.00;;;6.50;99.90;;;;;;5039310;28;20060;-83
2022/10/09 06:55:57;;;;;;;0.00;0.00;;;6.60;99.90;;;;;;5056620;28;20053;-82
2022/10/09 06:58:23;;;;;;;0.00;0.00;;;6.60;99.90;;;;;;5039489;28;20052;-83
2022/10/09 07:00:48;;;;;;;0.00;0.00;;;6.80;99.90;;;;;;5039550;28;20057;-83
2022/10/09 07:03:14;;;;;;;0.00;0.00;;;6.80;99.90;;;;;;5055974;28;20052;-83
2022/10/09 07:05:40;;;;;;;0.00;0.00;;;7.00;99.90;;;;;;5055431;28;20052;-87
2022/10/09 07:08:06;;;;;;;0.20;0.10;;;7.20;99.90;;;;;;5039136;28;20052;-83
2022/10/09 07:10:31;;;;;;;0.00;0.00;;;7.50;99.90;;;;;;5039603;28;20048;-83
2022/10/09 07:12:57;;;;;;;0.00;0.00;;;7.70;99.90;;;;;;5056360;28;20045;-84
2022/10/09 07:15:23;;;;;;;0.00;0.00;;;7.70;99.90;;;;;;5039807;28;20102;-86
2022/10/09 07:17:49;;;;;;;0.10;0.00;;;7.80;99.90;;;;;;5077522;28;20087;-83
2022/10/09 07:20:14;;;;;;;0.32;0.00;;;8.50;99.90;;;;;;5077140;28;20049;-83
2022/10/09 07:22:40;;;;;;;0.25;0.22;;;7.80;99.90;;;;;;5041627;28;20048;-83
2022/10/09 07:25:06;;;;;;;0.00;0.00;;;7.90;99.90;;;;;;5055971;28;20071;-83
2022/10/09 07:27:34;;;;;;;0.00;0.00;;;8.00;99.90;;;;;;5055392;28;20055;-82
2022/10/09 07:30:00;;;;;;;0.00;0.00;;;8.10;99.90;;;;;;5072332;28;20053;-83
2022/10/09 07:32:25;;;;;;;0.00;0.00;;;8.00;99.90;;;;;;5055723;28;20048;-83
2022/10/09 07:34:51;;;;;;;0.00;0.00;;;8.20;99.90;;;;;;5038859;28;20110;-82
2022/10/09 07:37:17;;;;;;;0.00;0.00;;;8.20;99.90;;;;;;5039010;28;20041;-83
2022/10/09 07:39:42;;;;;;;0.00;0.00;;;8.40;99.90;;;;;;5039572;28;20081;-83
2022/10/09 07:42:08;;;;;;;0.00;0.00;;;8.40;99.90;;;;;;5055114;28;20105;-83
2022/10/09 07:44:34;;;;;;;0.10;0.10;;;8.40;99.90;;;;;;5038374;28;20060;-83
2022/10/09 07:46:59;;;;;;;0.08;0.00;;;8.50;99.90;;;;;;5054788;28;20519;-83
2022/10/09 07:49:25;;;;;;;0.00;0.00;;;8.50;99.90;;;;;;5037823;28;20057;-83
2022/10/09 07:51:51;;;;;;;0.00;0.00;;;8.90;99.90;;;;;;5038281;28;20072;-83
2022/10/09 07:54:16;;;;;;;0.15;0.15;;;8.70;99.90;;;;;;5054697;28;20041;-83
2022/10/09 07:56:42;;;;;;;0.00;0.00;;;8.70;99.90;;;;;;5055252;28;20048;-83
2022/10/09 07:59:12;;;;;;;0.30;0.00;;;8.80;99.90;;;;;;5038483;28;20044;-83
2022/10/09 08:01:38;;;;;;;0.15;0.13;;;8.90;99.90;;;;;;5038324;28;20056;-85
2022/10/09 08:04:04;;;;;;;0.13;0.10;;;9.00;99.90;;;;;;5038188;28;20409;-85
2022/10/09 08:06:30;;;;;;;0.00;0.00;;;9.00;99.90;;;;;;5054134;28;20392;-85
2022/10/09 08:08:58;;;;;;;0.00;0.00;;;9.10;99.90;;;;;;5037822;28;20052;-85
2022/10/09 08:11:26;;;;;;;0.00;0.00;;;9.20;99.90;;;;;;5038668;28;20045;-84
2022/10/09 08:13:55;;;;;;;0.68;0.30;;;9.30;99.90;;;;;;5037702;28;20127;-85
2022/10/09 08:16:22;;;;;;;0.10;0.10;;;9.40;99.90;;;;;;5038253;28;20374;-85
2022/10/09 08:18:47;;;;;;;0.00;0.00;;;9.50;99.90;;;;;;5069886;28;20481;-84
2022/10/09 08:21:16;;;;;;;0.17;0.05;;;9.60;99.90;;;;;;5038085;28;20055;-84
2022/10/09 08:23:43;;;;;;;0.98;0.77;;;9.90;99.90;;;;;;5037423;28;20114;-84
2022/10/09 08:26:13;;;;;;;0.00;0.00;;;10.10;99.90;;;;;;5037242;28;20048;-85
2022/10/09 08:28:39;;;;;;;0.00;0.00;;;10.10;99.90;;;;;;5036078;28;20456;-84
2022/10/09 08:31:12;;;;;;;0.00;0.00;;;10.20;99.90;;;;;;5036490;28;20053;-85
2022/10/09 08:33:38;;;;;;;0.08;0.03;;;10.30;99.90;;;;;;5037143;28;20045;-85
2022/10/09 08:36:06;;;;;;;0.00;0.00;;;11.00;99.90;;;;;;5037054;28;20448;-85
2022/10/09 08:38:33;;;;;;;7.88;1.77;;;11.40;99.90;;;;;;5037302;28;20076;-85
2022/10/09 08:41:12;;;;;;;0.10;0.10;;;11.50;99.90;;;;;;5036753;28;20480;-85
2022/10/09 08:43:43;;;;;;;0.00;0.00;;;11.90;99.90;;;;;;5053413;28;20388;-85
2022/10/09 08:46:21;;;;;;;0.10;0.10;;;12.10;99.90;;;;;;5070278;28;20053;-85
2022/10/09 08:48:48;;;;;;;0.05;0.00;;;12.20;99.90;;;;;;5036789;28;20480;-86
2022/10/09 08:51:24;;;;;;;0.43;0.00;;;12.40;99.90;;;;;;5053762;28;20443;-85
2022/10/09 08:54:02;;;;;;;0.30;0.20;;;12.90;99.90;;;;;;5037670;28;20051;-85
2022/10/09 08:56:29;;;;;;;0.00;0.00;;;12.90;99.90;;;;;;5037894;28;20099;-86
2022/10/09 08:58:55;;;;;;;0.20;0.20;;;13.10;99.90;;;;;;5059743;28;20049;-85
2022/10/09 09:01:57;;;;;;;0.10;0.00;;;13.30;99.90;;;;;;5077712;28;20043;-86
2022/10/09 09:04:54;;;;;;;0.00;0.00;;;13.50;99.90;;;;;;5036736;28;20493;-85
2022/10/09 09:07:37;;;;;;;0.20;0.20;;;13.80;99.90;;;;;;5037909;28;20049;-92
2022/10/09 09:10:40;;;;;;;0.00;0.00;;;13.90;99.90;;;;;;5053877;28;20076;-85
2022/10/09 09:13:25;;;;;;;0.00;0.00;;;14.10;99.90;;;;;;5036511;28;20052;-86
2022/10/09 09:15:54;;;;;;;;;;;14.40;99.90;;;;;;5053938;28;20045;-85
2022/10/09 09:18:45;;;;;;;0.00;0.00;;;14.60;99.90;;;;;;5036302;28;19921;-86
2022/10/09 09:21:18;;;;;;;0.08;0.08;;;14.80;99.90;;;;;;5070018;28;20049;-86
2022/10/09 09:23:47;;;;;;;1.65;0.38;;;14.90;99.90;;;;;;5036773;28;20397;-85
2022/10/09 09:26:15;;;;;;;0.15;0.10;;;14.80;99.90;;;;;;5036537;28;20045;-85
2022/10/09 09:28:43;;;;;;;0.28;0.28;;;15.00;99.90;;;;;;5036229;28;20083;-86
2022/10/09 09:31:18;;;;;;;0.00;0.00;;;15.20;99.90;;;;;;5036107;28;20208;-85
2022/10/09 09:33:49;;;;;;;0.20;0.15;;;15.10;99.90;;;;;;5036380;28;20060;-85
2022/10/09 09:36:24;;;;;;;0.03;0.00;;;15.20;99.90;;;;;;5036922;28;20106;-87
2022/10/09 09:38:51;;;;;;;0.00;0.00;;;15.10;99.90;;;;;;5036314;28;20094;-86
2022/10/09 09:41:19;;;;;;;0.00;0.00;;;15.20;99.90;;;;;;5036426;28;20045;-86
2022/10/09 09:43:45;;;;;;;0.00;0.00;;;15.30;99.90;;;;;;5032672;28;20050;-86
2022/10/09 09:46:17;;;;;;;0.03;0.03;;;15.40;99.90;;;;;;5048981;28;20504;-85
2022/10/09 09:48:47;;;;;;;0.00;0.00;;;15.70;99.90;;;;;;5015715;28;20057;-86
2022/10/09 09:51:23;;;;;;;0.28;0.28;;;15.80;99.90;;;;;;5033123;28;20195;-87
2022/10/09 09:53:54;;;;;;;0.00;0.00;;;15.90;99.90;;;;;;5016740;28;20124;-87
2022/10/09 09:56:30;;;;;;;0.00;0.00;;;16.00;99.90;;;;;;5016444;28;20049;-86
2022/10/09 09:58:56;;;;;;;0.00;0.00;;;16.00;99.90;;;;;;5016279;28;20384;-88
2022/10/09 10:01:25;;;;;;;0.00;0.00;;;16.10;99.90;;;;;;5032166;28;20055;-85
2022/10/09 10:03:53;;;;;;;0.00;0.00;;;16.10;99.90;;;;;;5065974;28;20045;-86
2022/10/09 10:06:34;;;;;;;0.00;0.00;;;16.20;99.90;;;;;;5016067;28;20049;-86
2022/10/09 10:09:03;;;;;;;0.00;0.00;;;16.00;99.90;;;;;;5015659;28;20128;-87
2022/10/09 10:11:31;;;;;;;0.00;0.00;;;16.10;99.90;;;;;;5015839;28;20049;-87
2022/10/09 10:14:03;;;;;;;0.00;0.00;;;16.30;99.90;;;;;;5032302;28;20389;-87
2022/10/09 10:16:32;;;;;;;0.00;0.00;;;16.40;99.90;;;;;;5032201;28;20048;-87
2022/10/09 10:18:58;;;;;;;0.15;0.15;;;16.50;99.90;;;;;;5032653;28;20128;-88
2022/10/09 10:21:24;;;;;;;0.22;0.00;;;16.80;99.90;;;;;;5015592;28;20453;-86
2022/10/09 10:24:03;;;;;;;0.00;0.00;;;16.60;99.90;;;;;;5015995;28;20060;-87
2022/10/09 10:26:38;;;;;;;0.00;0.00;;;16.60;99.90;;;;;;5016049;28;20056;-85
2022/10/09 10:29:16;;;;;;;0.10;0.10;;;16.70;99.90;;;;;;5032094;28;20053;-83
2022/10/09 10:31:48;;;;;;;0.00;0.00;;;17.00;99.90;;;;;;5015464;28;20041;-85
2022/10/09 10:34:26;;;;;;;0.00;0.00;;;16.90;99.90;;;;;;5032138;28;20045;-83
2022/10/09 10:37:34;;;;;;;0.43;0.43;;;17.00;99.90;;;;;;5016121;28;20046;-84
2022/10/09 10:40:13;;;;;;;2.00;1.27;;;16.80;99.90;;;;;;5014585;28;20518;-83
2022/10/09 10:42:56;;;;;;;0.98;0.80;;;16.80;99.90;;;;;;5050676;28;20053;-84
2022/10/09 10:45:44;;;;;;;0.52;0.40;;;17.00;99.90;;;;;;5001977;28;20142;-85
2022/10/09 10:48:20;;;;;;;0.00;0.00;;;17.00;99.90;;;;;;5051965;28;20057;-83
2022/10/09 10:50:56;;;;;;;0.00;0.00;;;17.00;99.90;;;;;;5022767;28;20058;-84
2022/10/09 10:53:43;;;;;;;0.00;0.00;;;17.20;99.90;;;;;;5068185;28;20048;-84
2022/10/09 10:56:22;;;;;;;0.00;0.00;;;17.30;99.90;;;;;;5021590;28;20121;-85
2022/10/09 10:59:05;;;;;;;1.25;0.17;;;17.40;99.90;;;;;;5069773;28;20061;-85
2022/10/09 11:01:45;;;;;;;0.00;0.00;;;17.60;99.90;;;;;;5017505;28;20076;-83
2022/10/09 11:04:29;;;;;;;0.00;0.00;;;17.70;99.90;;;;;;5018544;28;20060;-85
2022/10/09 11:07:11;;;;;;;0.00;0.00;;;17.80;99.90;;;;;;5051949;28;20052;-84
2022/10/09 11:10:03;;;;;;;0.00;0.00;;;17.80;99.90;;;;;;5017456;28;20068;-84
2022/10/09 11:13:01;;;;;;;0.00;0.00;;;17.60;99.90;;;;;;5002419;28;20405;-84
2022/10/09 11:15:45;;;;;;;0.00;0.00;;;17.60;99.70;;;;;;4962933;28;20054;-85
2022/10/09 11:18:20;;;;;;;0.10;0.00;;;17.50;99.90;;;;;;4982167;28;20149;-85
2022/10/09 11:21:27;;;;;;;0.10;0.10;;;17.30;99.00;;;;;;4982535;28;20057;-84
2022/10/09 11:24:00;;;;;;;0.00;0.00;;;17.30;99.20;;;;;;4981734;28;20046;-84
2022/10/09 11:26:29;;;;;;;0.75;0.20;;;17.50;99.90;;;;;;4982264;28;20065;-85
2022/10/09 11:29:03;;;;;;;0.28;0.20;;;17.50;99.70;;;;;;4981881;28;20046;-85
2022/10/09 11:31:39;;;;;;;0.00;0.00;;;17.50;97.80;;;;;;4998195;28;20058;-84
2022/10/09 11:34:17;;;;;;;0.10;0.10;;;17.30;98.80;;;;;;4982289;28;20057;-85
2022/10/09 11:36:44;;;;;;;0.10;0.10;;;17.30;97.50;;;;;;4982011;28;20050;-85
2022/10/09 11:39:25;;;;;;;0.00;0.00;;;17.30;97.60;;;;;;4982254;28;20073;-85
2022/10/09 11:41:53;;;;;;;0.00;0.00;;;17.50;98.50;;;;;;4997774;28;20046;-85
2022/10/09 11:44:21;;;;;;;0.00;0.00;;;17.50;98.70;;;;;;4998097;28;20508;-85
2022/10/09 11:47:05;;;;;;;0.00;0.00;;;17.50;95.30;;;;;;4981880;28;20046;-85
2022/10/09 11:50:03;;;;;;;0.40;0.20;;;17.60;97.00;;;;;;4997520;28;20089;-84
2022/10/09 11:52:43;;;;;;;0.00;0.00;;;17.70;95.60;;;;;;5035042;28;20077;-84
2022/10/09 11:55:17;;;;;;;0.00;0.00;;;17.70;96.10;;;;;;5018505;28;20065;-85
2022/10/09 11:57:43;;;;;;;0.00;0.00;;;17.70;97.60;;;;;;5034580;28;20045;-83
2022/10/09 12:00:10;;;;;;;0.20;0.20;;;17.80;95.40;;;;;;5018536;28;20041;-84
2022/10/09 12:02:37;;;;;;;3.35;0.40;;;17.90;95.60;;;;;;5034849;28;20405;-85
2022/10/09 12:05:39;;;;;;;0.08;0.08;;;18.10;95.00;;;;;;5034812;28;20057;-85
2022/10/09 12:08:11;;;;;;;0.00;0.00;;;18.70;96.10;;;;;;5033523;28;20045;-84
2022/10/09 12:11:00;;;;;;;0.30;0.30;;;19.10;94.90;;;;;;5001229;28;20417;-85
2022/10/09 12:13:41;;;;;;;0.20;0.20;;;19.40;94.50;;;;;;5015627;28;20132;-84
2022/10/09 12:16:27;;;;;;;0.00;0.00;;;19.80;93.40;;;;;;5000633;28;20057;-84
2022/10/09 12:18:53;;;;;;;0.00;0.00;;;19.90;92.80;;;;;;5033414;28;20049;-85
2022/10/09 12:21:25;;;;;;;0.00;0.00;;;20.00;92.10;;;;;;5016776;28;20049;-84
2022/10/09 12:23:51;;;;;;;0.35;0.20;;;19.90;92.10;;;;;;5000668;28;20426;-84
2022/10/09 12:26:20;;;;;;;0.00;0.00;;;19.80;90.90;;;;;;5000613;28;20057;-84
2022/10/09 12:28:55;;;;;;;2.17;0.40;;;19.80;91.90;;;;;;5016376;28;20574;-84
2022/10/09 12:31:25;;;;;;;;;;;19.60;92.00;;;;;;5050275;28;20050;-84
2022/10/09 12:34:13;;;;;;;0.00;0.00;;;19.40;90.60;;;;;;5049599;28;20016;-85
2022/10/09 12:36:39;;;;;;;0.00;0.00;;;19.30;92.10;;;;;;4960953;28;20406;-84
2022/10/09 12:39:23;;;;;;;0.20;0.20;;;19.20;92.30;;;;;;4977279;28;20153;-84
2022/10/09 12:41:54;;;;;;;0.00;0.00;;;19.00;91.30;;;;;;4977716;28;20056;-84
2022/10/09 12:44:38;;;;;;;0.30;0.20;;;18.90;92.20;;;;;;4980828;28;20104;-84
2022/10/09 12:47:13;;;;;;;1.65;0.40;;;18.60;91.00;;;;;;4981134;28;20072;-84
2022/10/09 12:49:39;;;;;;;0.00;0.00;;;18.60;93.40;;;;;;4996588;28;20053;-85
2022/10/09 12:52:14;;;;;;;0.00;0.00;;;18.50;91.20;;;;;;5003691;28;20496;-85
2022/10/09 12:54:43;;;;;;;0.20;0.20;;;18.40;92.20;;;;;;4989301;28;20089;-84
2022/10/09 12:57:12;;;;;;;0.10;0.10;;;18.30;91.80;;;;;;4986191;28;20089;-84
2022/10/09 12:59:39;;;;;;;0.10;0.00;;;18.30;92.50;;;;;;4981184;28;20089;-83
2022/10/09 13:02:10;;;;;;;0.00;0.00;;;18.30;91.70;;;;;;4995496;28;20115;-83
2022/10/09 13:04:36;;;;;;;0.00;0.00;;;18.20;90.90;;;;;;4996648;28;20092;-83
2022/10/09 13:07:06;;;;;;;0.00;0.00;;;18.20;91.10;;;;;;4979655;28;20111;-84
2022/10/09 13:09:38;;;;;;;0.00;0.00;;;18.10;90.90;;;;;;4996200;28;20100;-83
2022/10/09 13:12:18;;;;;;;1.45;0.20;;;18.10;92.50;;;;;;4979266;28;20607;-83
2022/10/09 13:14:45;;;;;;;0.00;0.00;;;18.20;92.20;;;;;;5030133;28;20061;-82